sensor_id;sensor_type;location;lat;lon;timestamp;P1;durP1;ratioP1;P2;durP2;ratioP2
20794;SDS011;28087;-33.874;151.240;2023-03-14T00:00:45;15.35;;;2.63;;
20794;SDS011;28087;-33.874;151.240;2023-03-14T00:03:21;19.95;;;3.33;;
20794;SDS011;28087;-33.874;151.240;2023-03-14T00:05:57;16.20;;;2.80;;
20794;SDS011;28087;-33.874;151.240;2023-03-14T00:08:37;12.85;;;3.28;;
20794;SDS011;28087;-33.874;151.240;2023-03-14T00:11:16;15.77;;;2.75;;
20794;SDS011;28087;-33.874;151.240;2023-03-14T00:13:54;12.48;;;2.75;;
20794;SDS011;28087;-33.874;151.240;2023-03-14T00:16:30;16.42;;;3.20;;
20794;SDS011;28087;-33.874;151.240;2023-03-14T00:19:10;15.30;;;2.60;;
20794;SDS011;28087;-33.874;151.240;2023-03-14T00:21:47;10.95;;;2.30;;
20794;SDS011;28087;-33.874;151.240;2023-03-14T00:24:26;10.85;;;2.63;;
20794;SDS011;28087;-33.874;151.240;2023-03-14T00:27:15;13.50;;;2.63;;
20794;SDS011;28087;-33.874;151.240;2023-03-14T00:29:51;11.48;;;2.67;;
20794;SDS011;28087;-33.874;151.240;2023-03-14T00:32:28;14.90;;;3.13;;
20794;SDS011;28087;-33.874;151.240;2023-03-14T00:35:05;15.90;;;3.40;;
20794;SDS011;28087;-33.874;151.240;2023-03-14T00:37:41;12.60;;;2.88;;
20794;SDS011;28087;-33.874;151.240;2023-03-14T00:40:17;28.38;;;5.22;;
20794;SDS011;28087;-33.874;151.240;2023-03-14T00:42:55;19.10;;;3.70;;
20794;SDS011;28087;-33.874;151.240;2023-03-14T00:45:31;36.95;;;4.75;;
20794;SDS011;28087;-33.874;151.240;2023-03-14T00:48:08;31.80;;;4.10;;
20794;SDS011;28087;-33.874;151.240;2023-03-14T00:50:44;12.20;;;3.10;;
20794;SDS011;28087;-33.874;151.240;2023-03-14T00:53:24;18.02;;;3.30;;
20794;SDS011;28087;-33.874;151.240;2023-03-14T00:56:03;15.60;;;2.67;;
20794;SDS011;28087;-33.874;151.240;2023-03-14T00:58:43;15.38;;;3.03;;
20794;SDS011;28087;-33.874;151.240;2023-03-14T01:01:19;14.10;;;2.75;;
20794;SDS011;28087;-33.874;151.240;2023-03-14T01:03:59;21.55;;;3.63;;
20794;SDS011;28087;-33.874;151.240;2023-03-14T01:06:38;18.17;;;3.35;;
20794;SDS011;28087;-33.874;151.240;2023-03-14T01:09:14;17.23;;;2.90;;
20794;SDS011;28087;-33.874;151.240;2023-03-14T01:11:51;18.77;;;2.92;;
20794;SDS011;28087;-33.874;151.240;2023-03-14T01:14:29;16.38;;;3.55;;
20794;SDS011;28087;-33.874;151.240;2023-03-14T01:17:05;13.80;;;2.58;;
20794;SDS011;28087;-33.874;151.240;2023-03-14T01:19:40;19.50;;;2.65;;
20794;SDS011;28087;-33.874;151.240;2023-03-14T01:22:16;12.50;;;2.47;;
20794;SDS011;28087;-33.874;151.240;2023-03-14T01:24:53;19.42;;;2.83;;
20794;SDS011;28087;-33.874;151.240;2023-03-14T01:27:31;15.75;;;2.63;;
20794;SDS011;28087;-33.874;151.240;2023-03-14T01:30:11;11.38;;;2.75;;
20794;SDS011;28087;-33.874;151.240;2023-03-14T01:32:50;15.35;;;2.40;;
20794;SDS011;28087;-33.874;151.240;2023-03-14T01:35:27;13.43;;;2.60;;
20794;SDS011;28087;-33.874;151.240;2023-03-14T01:38:06;13.77;;;2.22;;
20794;SDS011;28087;-33.874;151.240;2023-03-14T01:41:00;13.35;;;2.38;;
20794;SDS011;28087;-33.874;151.240;2023-03-14T01:43:37;12.15;;;2.40;;
20794;SDS011;28087;-33.874;151.240;2023-03-14T01:49:21;11.98;;;2.33;;
20794;SDS011;28087;-33.874;151.240;2023-03-14T01:52:09;13.90;;;2.70;;
20794;SDS011;28087;-33.874;151.240;2023-03-14T01:54:47;10.55;;;2.35;;
20794;SDS011;28087;-33.874;151.240;2023-03-14T01:57:27;9.35;;;2.20;;
20794;SDS011;28087;-33.874;151.240;2023-03-14T02:00:06;9.32;;;2.20;;
20794;SDS011;28087;-33.874;151.240;2023-03-14T02:02:50;15.55;;;3.03;;
20794;SDS011;28087;-33.874;151.240;2023-03-14T02:05:32;15.90;;;3.13;;
20794;SDS011;28087;-33.874;151.240;2023-03-14T02:08:18;10.23;;;2.40;;
20794;SDS011;28087;-33.874;151.240;2023-03-14T02:10:59;10.48;;;2.50;;
20794;SDS011;28087;-33.874;151.240;2023-03-14T02:13:57;9.82;;;2.42;;
20794;SDS011;28087;-33.874;151.240;2023-03-14T02:16:59;10.80;;;2.45;;
20794;SDS011;28087;-33.874;151.240;2023-03-14T02:20:06;12.18;;;2.83;;
20794;SDS011;28087;-33.874;151.240;2023-03-14T02:22:59;14.98;;;2.92;;
20794;SDS011;28087;-33.874;151.240;2023-03-14T02:25:39;9.52;;;2.50;;
20794;SDS011;28087;-33.874;151.240;2023-03-14T02:28:23;14.63;;;2.85;;
20794;SDS011;28087;-33.874;151.240;2023-03-14T02:31:02;11.40;;;2.47;;
20794;SDS011;28087;-33.874;151.240;2023-03-14T02:33:39;10.13;;;2.50;;
20794;SDS011;28087;-33.874;151.240;2023-03-14T02:36:18;12.63;;;2.65;;
20794;SDS011;28087;-33.874;151.240;2023-03-14T02:39:00;10.30;;;2.72;;
20794;SDS011;28087;-33.874;151.240;2023-03-14T02:41:45;14.35;;;3.03;;
20794;SDS011;28087;-33.874;151.240;2023-03-14T02:44:23;11.27;;;2.85;;
20794;SDS011;28087;-33.874;151.240;2023-03-14T02:47:03;17.48;;;3.40;;
20794;SDS011;28087;-33.874;151.240;2023-03-14T02:49:42;11.40;;;2.75;;
20794;SDS011;28087;-33.874;151.240;2023-03-14T02:52:18;11.43;;;3.00;;
20794;SDS011;28087;-33.874;151.240;2023-03-14T02:54:54;13.32;;;3.08;;
20794;SDS011;28087;-33.874;151.240;2023-03-14T02:57:30;12.32;;;2.92;;
20794;SDS011;28087;-33.874;151.240;2023-03-14T03:00:09;14.85;;;3.38;;
20794;SDS011;28087;-33.874;151.240;2023-03-14T03:02:46;13.95;;;3.35;;
20794;SDS011;28087;-33.874;151.240;2023-03-14T03:05:25;10.93;;;2.70;;
20794;SDS011;28087;-33.874;151.240;2023-03-14T03:08:04;11.60;;;2.97;;
20794;SDS011;28087;-33.874;151.240;2023-03-14T03:10:41;14.85;;;3.03;;
20794;SDS011;28087;-33.874;151.240;2023-03-14T03:13:25;19.33;;;3.38;;
20794;SDS011;28087;-33.874;151.240;2023-03-14T03:16:05;16.75;;;3.42;;
20794;SDS011;28087;-33.874;151.240;2023-03-14T03:18:41;15.18;;;3.30;;
20794;SDS011;28087;-33.874;151.240;2023-03-14T03:21:17;15.10;;;3.38;;
20794;SDS011;28087;-33.874;151.240;2023-03-14T03:23:56;13.70;;;3.25;;
20794;SDS011;28087;-33.874;151.240;2023-03-14T03:26:34;15.48;;;3.53;;
20794;SDS011;28087;-33.874;151.240;2023-03-14T03:29:11;14.07;;;2.67;;
20794;SDS011;28087;-33.874;151.240;2023-03-14T03:31:49;14.68;;;3.30;;
20794;SDS011;28087;-33.874;151.240;2023-03-14T03:34:26;15.75;;;3.10;;
20794;SDS011;28087;-33.874;151.240;2023-03-14T03:37:02;11.27;;;3.08;;
20794;SDS011;28087;-33.874;151.240;2023-03-14T03:39:40;14.57;;;3.75;;
20794;SDS011;28087;-33.874;151.240;2023-03-14T03:42:16;12.30;;;3.00;;
20794;SDS011;28087;-33.874;151.240;2023-03-14T03:44:53;12.75;;;2.95;;
20794;SDS011;28087;-33.874;151.240;2023-03-14T03:47:32;12.75;;;3.40;;
20794;SDS011;28087;-33.874;151.240;2023-03-14T03:50:08;11.45;;;2.80;;
20794;SDS011;28087;-33.874;151.240;2023-03-14T03:52:45;11.82;;;2.78;;
20794;SDS011;28087;-33.874;151.240;2023-03-14T03:55:20;9.35;;;2.45;;
20794;SDS011;28087;-33.874;151.240;2023-03-14T03:57:56;7.65;;;2.40;;
20794;SDS011;28087;-33.874;151.240;2023-03-14T04:00:31;8.93;;;2.40;;
20794;SDS011;28087;-33.874;151.240;2023-03-14T04:03:09;8.57;;;2.50;;
20794;SDS011;28087;-33.874;151.240;2023-03-14T04:05:45;8.95;;;2.53;;
20794;SDS011;28087;-33.874;151.240;2023-03-14T04:08:32;10.43;;;2.67;;
20794;SDS011;28087;-33.874;151.240;2023-03-14T04:11:09;11.35;;;2.75;;
20794;SDS011;28087;-33.874;151.240;2023-03-14T04:13:55;11.93;;;2.70;;
20794;SDS011;28087;-33.874;151.240;2023-03-14T04:16:31;17.13;;;3.30;;
20794;SDS011;28087;-33.874;151.240;2023-03-14T04:19:14;12.48;;;2.97;;
20794;SDS011;28087;-33.874;151.240;2023-03-14T04:21:52;11.32;;;2.63;;
20794;SDS011;28087;-33.874;151.240;2023-03-14T04:24:34;12.73;;;2.88;;
20794;SDS011;28087;-33.874;151.240;2023-03-14T04:27:10;14.48;;;2.92;;
20794;SDS011;28087;-33.874;151.240;2023-03-14T04:29:47;14.60;;;3.20;;
20794;SDS011;28087;-33.874;151.240;2023-03-14T04:32:39;11.85;;;3.00;;
20794;SDS011;28087;-33.874;151.240;2023-03-14T04:35:17;11.27;;;2.80;;
20794;SDS011;28087;-33.874;151.240;2023-03-14T04:37:57;10.63;;;2.75;;
20794;SDS011;28087;-33.874;151.240;2023-03-14T04:40:36;10.43;;;2.70;;
20794;SDS011;28087;-33.874;151.240;2023-03-14T04:43:13;13.13;;;3.20;;
20794;SDS011;28087;-33.874;151.240;2023-03-14T04:46:01;14.25;;;3.00;;
20794;SDS011;28087;-33.874;151.240;2023-03-14T04:48:38;12.77;;;3.15;;
20794;SDS011;28087;-33.874;151.240;2023-03-14T04:51:15;13.00;;;3.38;;
20794;SDS011;28087;-33.874;151.240;2023-03-14T04:53:54;13.43;;;3.38;;
20794;SDS011;28087;-33.874;151.240;2023-03-14T04:56:30;8.15;;;2.42;;
20794;SDS011;28087;-33.874;151.240;2023-03-14T04:59:09;9.82;;;3.35;;
20794;SDS011;28087;-33.874;151.240;2023-03-14T05:01:44;16.00;;;3.63;;
20794;SDS011;28087;-33.874;151.240;2023-03-14T05:04:46;18.25;;;4.15;;
20794;SDS011;28087;-33.874;151.240;2023-03-14T05:07:42;14.43;;;3.10;;
20794;SDS011;28087;-33.874;151.240;2023-03-14T05:10:41;12.85;;;3.30;;
20794;SDS011;28087;-33.874;151.240;2023-03-14T05:13:34;14.05;;;3.53;;
20794;SDS011;28087;-33.874;151.240;2023-03-14T05:16:18;17.77;;;4.07;;
20794;SDS011;28087;-33.874;151.240;2023-03-14T05:19:13;12.57;;;3.38;;
20794;SDS011;28087;-33.874;151.240;2023-03-14T05:22:07;17.45;;;3.38;;
20794;SDS011;28087;-33.874;151.240;2023-03-14T05:25:02;18.48;;;3.70;;
20794;SDS011;28087;-33.874;151.240;2023-03-14T05:27:53;15.35;;;2.92;;
20794;SDS011;28087;-33.874;151.240;2023-03-14T05:31:01;10.52;;;2.80;;
20794;SDS011;28087;-33.874;151.240;2023-03-14T05:34:01;12.70;;;3.00;;
20794;SDS011;28087;-33.874;151.240;2023-03-14T05:36:59;13.35;;;3.08;;
20794;SDS011;28087;-33.874;151.240;2023-03-14T05:39:41;11.73;;;3.20;;
20794;SDS011;28087;-33.874;151.240;2023-03-14T05:42:47;13.90;;;2.80;;
20794;SDS011;28087;-33.874;151.240;2023-03-14T05:45:52;12.77;;;3.25;;
20794;SDS011;28087;-33.874;151.240;2023-03-14T05:48:45;19.17;;;3.50;;
20794;SDS011;28087;-33.874;151.240;2023-03-14T05:51:59;13.38;;;3.20;;
20794;SDS011;28087;-33.874;151.240;2023-03-14T05:54:52;12.27;;;2.80;;
20794;SDS011;28087;-33.874;151.240;2023-03-14T05:57:52;14.63;;;3.22;;
20794;SDS011;28087;-33.874;151.240;2023-03-14T06:00:39;13.55;;;3.25;;
20794;SDS011;28087;-33.874;151.240;2023-03-14T06:03:26;9.60;;;2.60;;
20794;SDS011;28087;-33.874;151.240;2023-03-14T06:06:01;16.30;;;3.50;;
20794;SDS011;28087;-33.874;151.240;2023-03-14T06:08:37;15.05;;;3.50;;
20794;SDS011;28087;-33.874;151.240;2023-03-14T06:11:12;14.80;;;3.08;;
20794;SDS011;28087;-33.874;151.240;2023-03-14T06:13:59;12.63;;;3.15;;
20794;SDS011;28087;-33.874;151.240;2023-03-14T06:16:35;16.00;;;3.00;;
20794;SDS011;28087;-33.874;151.240;2023-03-14T06:19:11;17.92;;;3.50;;
20794;SDS011;28087;-33.874;151.240;2023-03-14T06:21:47;13.48;;;3.15;;
20794;SDS011;28087;-33.874;151.240;2023-03-14T06:24:25;15.25;;;3.00;;
20794;SDS011;28087;-33.874;151.240;2023-03-14T06:27:01;14.18;;;3.25;;
20794;SDS011;28087;-33.874;151.240;2023-03-14T06:29:38;14.00;;;2.65;;
20794;SDS011;28087;-33.874;151.240;2023-03-14T06:32:14;13.80;;;3.28;;
20794;SDS011;28087;-33.874;151.240;2023-03-14T06:34:53;18.60;;;3.25;;
20794;SDS011;28087;-33.874;151.240;2023-03-14T06:37:36;17.73;;;3.00;;
20794;SDS011;28087;-33.874;151.240;2023-03-14T06:40:13;19.20;;;3.40;;
20794;SDS011;28087;-33.874;151.240;2023-03-14T06:43:04;13.20;;;2.83;;
20794;SDS011;28087;-33.874;151.240;2023-03-14T06:45:44;13.23;;;3.00;;
20794;SDS011;28087;-33.874;151.240;2023-03-14T06:48:21;13.88;;;3.22;;
20794;SDS011;28087;-33.874;151.240;2023-03-14T06:50:57;15.13;;;3.10;;
20794;SDS011;28087;-33.874;151.240;2023-03-14T06:53:33;13.25;;;2.75;;
20794;SDS011;28087;-33.874;151.240;2023-03-14T06:56:09;12.65;;;2.78;;
20794;SDS011;28087;-33.874;151.240;2023-03-14T06:58:46;12.32;;;2.58;;
20794;SDS011;28087;-33.874;151.240;2023-03-14T07:01:26;14.98;;;3.05;;
20794;SDS011;28087;-33.874;151.240;2023-03-14T07:04:08;17.90;;;3.15;;
20794;SDS011;28087;-33.874;151.240;2023-03-14T07:06:48;13.55;;;2.80;;
20794;SDS011;28087;-33.874;151.240;2023-03-14T07:09:28;13.50;;;2.70;;
20794;SDS011;28087;-33.874;151.240;2023-03-14T07:12:04;12.57;;;2.70;;
20794;SDS011;28087;-33.874;151.240;2023-03-14T07:14:40;10.95;;;2.47;;
20794;SDS011;28087;-33.874;151.240;2023-03-14T07:17:18;8.75;;;2.63;;
20794;SDS011;28087;-33.874;151.240;2023-03-14T07:19:54;10.15;;;2.22;;
20794;SDS011;28087;-33.874;151.240;2023-03-14T07:22:30;11.73;;;2.20;;
20794;SDS011;28087;-33.874;151.240;2023-03-14T07:25:06;36.35;;;4.43;;
20794;SDS011;28087;-33.874;151.240;2023-03-14T07:27:43;28.88;;;4.68;;
20794;SDS011;28087;-33.874;151.240;2023-03-14T07:30:19;15.00;;;2.92;;
20794;SDS011;28087;-33.874;151.240;2023-03-14T07:32:58;12.75;;;2.80;;
20794;SDS011;28087;-33.874;151.240;2023-03-14T07:35:33;12.63;;;2.50;;
20794;SDS011;28087;-33.874;151.240;2023-03-14T07:38:11;11.98;;;3.08;;
20794;SDS011;28087;-33.874;151.240;2023-03-14T07:41:20;12.18;;;3.00;;
20794;SDS011;28087;-33.874;151.240;2023-03-14T07:44:15;11.02;;;2.95;;
20794;SDS011;28087;-33.874;151.240;2023-03-14T07:46:50;12.50;;;3.60;;
20794;SDS011;28087;-33.874;151.240;2023-03-14T07:49:28;11.65;;;3.10;;
20794;SDS011;28087;-33.874;151.240;2023-03-14T07:52:04;13.77;;;3.20;;
20794;SDS011;28087;-33.874;151.240;2023-03-14T07:54:39;15.90;;;3.60;;
20794;SDS011;28087;-33.874;151.240;2023-03-14T07:57:15;16.23;;;3.33;;
20794;SDS011;28087;-33.874;151.240;2023-03-14T07:59:51;13.23;;;3.50;;
20794;SDS011;28087;-33.874;151.240;2023-03-14T08:02:27;16.48;;;3.50;;
20794;SDS011;28087;-33.874;151.240;2023-03-14T08:05:05;15.80;;;3.40;;
20794;SDS011;28087;-33.874;151.240;2023-03-14T08:07:41;19.05;;;3.75;;
20794;SDS011;28087;-33.874;151.240;2023-03-14T08:10:17;16.92;;;3.28;;
20794;SDS011;28087;-33.874;151.240;2023-03-14T08:12:56;17.00;;;3.47;;
20794;SDS011;28087;-33.874;151.240;2023-03-14T08:15:32;14.57;;;3.47;;
20794;SDS011;28087;-33.874;151.240;2023-03-14T08:18:07;17.35;;;3.42;;
20794;SDS011;28087;-33.874;151.240;2023-03-14T08:20:45;16.25;;;3.70;;
20794;SDS011;28087;-33.874;151.240;2023-03-14T08:23:21;15.73;;;3.70;;
20794;SDS011;28087;-33.874;151.240;2023-03-14T08:25:56;17.17;;;3.40;;
20794;SDS011;28087;-33.874;151.240;2023-03-14T08:28:32;25.33;;;6.63;;
20794;SDS011;28087;-33.874;151.240;2023-03-14T08:31:08;23.88;;;4.80;;
20794;SDS011;28087;-33.874;151.240;2023-03-14T08:33:43;19.17;;;4.20;;
20794;SDS011;28087;-33.874;151.240;2023-03-14T08:36:21;19.52;;;4.00;;
20794;SDS011;28087;-33.874;151.240;2023-03-14T08:38:56;13.63;;;3.17;;
20794;SDS011;28087;-33.874;151.240;2023-03-14T08:41:32;15.27;;;3.53;;
20794;SDS011;28087;-33.874;151.240;2023-03-14T08:44:12;13.60;;;3.08;;
20794;SDS011;28087;-33.874;151.240;2023-03-14T08:46:49;16.83;;;3.75;;
20794;SDS011;28087;-33.874;151.240;2023-03-14T08:49:24;14.43;;;3.67;;
20794;SDS011;28087;-33.874;151.240;2023-03-14T08:52:03;16.15;;;3.92;;
20794;SDS011;28087;-33.874;151.240;2023-03-14T08:54:39;14.77;;;3.97;;
20794;SDS011;28087;-33.874;151.240;2023-03-14T08:57:14;15.13;;;3.67;;
20794;SDS011;28087;-33.874;151.240;2023-03-14T08:59:50;14.00;;;3.65;;
20794;SDS011;28087;-33.874;151.240;2023-03-14T09:02:26;16.02;;;3.53;;
20794;SDS011;28087;-33.874;151.240;2023-03-14T09:05:02;18.02;;;4.15;;
20794;SDS011;28087;-33.874;151.240;2023-03-14T09:07:39;17.67;;;4.30;;
20794;SDS011;28087;-33.874;151.240;2023-03-14T09:10:15;25.50;;;4.80;;
20794;SDS011;28087;-33.874;151.240;2023-03-14T09:12:51;19.42;;;4.60;;
20794;SDS011;28087;-33.874;151.240;2023-03-14T09:15:28;21.23;;;4.97;;
20794;SDS011;28087;-33.874;151.240;2023-03-14T09:18:03;26.02;;;5.20;;
20794;SDS011;28087;-33.874;151.240;2023-03-14T09:20:39;25.75;;;5.25;;
20794;SDS011;28087;-33.874;151.240;2023-03-14T09:23:17;23.20;;;4.95;;
20794;SDS011;28087;-33.874;151.240;2023-03-14T09:25:54;21.30;;;4.60;;
20794;SDS011;28087;-33.874;151.240;2023-03-14T09:28:30;16.38;;;4.28;;
20794;SDS011;28087;-33.874;151.240;2023-03-14T09:31:06;21.98;;;4.45;;
20794;SDS011;28087;-33.874;151.240;2023-03-14T09:33:43;19.67;;;4.25;;
20794;SDS011;28087;-33.874;151.240;2023-03-14T09:36:18;16.05;;;3.63;;
20794;SDS011;28087;-33.874;151.240;2023-03-14T09:38:55;15.32;;;3.50;;
20794;SDS011;28087;-33.874;151.240;2023-03-14T09:41:31;17.55;;;3.67;;
20794;SDS011;28087;-33.874;151.240;2023-03-14T09:44:10;13.57;;;3.70;;
20794;SDS011;28087;-33.874;151.240;2023-03-14T09:46:50;17.38;;;3.65;;
20794;SDS011;28087;-33.874;151.240;2023-03-14T09:49:30;11.60;;;3.35;;
20794;SDS011;28087;-33.874;151.240;2023-03-14T09:52:10;11.30;;;3.15;;
20794;SDS011;28087;-33.874;151.240;2023-03-14T09:54:50;13.93;;;3.28;;
20794;SDS011;28087;-33.874;151.240;2023-03-14T09:57:28;16.23;;;3.20;;
20794;SDS011;28087;-33.874;151.240;2023-03-14T10:00:06;10.43;;;2.90;;
20794;SDS011;28087;-33.874;151.240;2023-03-14T10:02:51;12.77;;;3.15;;
20794;SDS011;28087;-33.874;151.240;2023-03-14T10:05:29;12.32;;;2.88;;
20794;SDS011;28087;-33.874;151.240;2023-03-14T10:08:04;15.18;;;3.45;;
20794;SDS011;28087;-33.874;151.240;2023-03-14T10:10:45;13.88;;;3.35;;
20794;SDS011;28087;-33.874;151.240;2023-03-14T10:13:21;11.98;;;3.38;;
20794;SDS011;28087;-33.874;151.240;2023-03-14T10:15:59;16.33;;;3.22;;
20794;SDS011;28087;-33.874;151.240;2023-03-14T10:18:37;14.75;;;3.30;;
20794;SDS011;28087;-33.874;151.240;2023-03-14T10:21:17;10.10;;;2.97;;
20794;SDS011;28087;-33.874;151.240;2023-03-14T10:24:07;14.18;;;3.28;;
20794;SDS011;28087;-33.874;151.240;2023-03-14T10:26:54;13.55;;;3.33;;
20794;SDS011;28087;-33.874;151.240;2023-03-14T10:29:33;13.95;;;3.28;;
20794;SDS011;28087;-33.874;151.240;2023-03-14T10:32:32;12.93;;;3.45;;
20794;SDS011;28087;-33.874;151.240;2023-03-14T10:35:17;18.33;;;3.88;;
20794;SDS011;28087;-33.874;151.240;2023-03-14T10:37:56;17.20;;;3.85;;
20794;SDS011;28087;-33.874;151.240;2023-03-14T10:40:33;13.18;;;3.10;;
20794;SDS011;28087;-33.874;151.240;2023-03-14T10:43:18;15.05;;;3.47;;
20794;SDS011;28087;-33.874;151.240;2023-03-14T10:45:58;13.35;;;3.17;;
20794;SDS011;28087;-33.874;151.240;2023-03-14T10:48:35;15.30;;;3.17;;
20794;SDS011;28087;-33.874;151.240;2023-03-14T10:51:18;13.50;;;3.40;;
20794;SDS011;28087;-33.874;151.240;2023-03-14T10:53:58;14.65;;;3.53;;
20794;SDS011;28087;-33.874;151.240;2023-03-14T10:56:35;12.95;;;3.30;;
20794;SDS011;28087;-33.874;151.240;2023-03-14T10:59:13;12.00;;;3.28;;
20794;SDS011;28087;-33.874;151.240;2023-03-14T11:01:51;17.58;;;3.38;;
20794;SDS011;28087;-33.874;151.240;2023-03-14T11:04:40;14.40;;;3.20;;
20794;SDS011;28087;-33.874;151.240;2023-03-14T11:07:28;16.05;;;3.08;;
20794;SDS011;28087;-33.874;151.240;2023-03-14T11:10:13;14.38;;;3.00;;
20794;SDS011;28087;-33.874;151.240;2023-03-14T11:12:56;11.52;;;3.10;;
20794;SDS011;28087;-33.874;151.240;2023-03-14T11:15:43;11.40;;;3.00;;
20794;SDS011;28087;-33.874;151.240;2023-03-14T11:18:45;11.75;;;3.10;;
20794;SDS011;28087;-33.874;151.240;2023-03-14T11:21:49;13.48;;;2.70;;
20794;SDS011;28087;-33.874;151.240;2023-03-14T11:27:28;11.25;;;2.97;;
20794;SDS011;28087;-33.874;151.240;2023-03-14T11:30:20;14.32;;;3.25;;
20794;SDS011;28087;-33.874;151.240;2023-03-14T11:33:07;12.02;;;3.20;;
20794;SDS011;28087;-33.874;151.240;2023-03-14T11:35:48;12.73;;;3.80;;
20794;SDS011;28087;-33.874;151.240;2023-03-14T11:38:33;13.20;;;3.05;;
20794;SDS011;28087;-33.874;151.240;2023-03-14T11:41:14;11.63;;;3.10;;
20794;SDS011;28087;-33.874;151.240;2023-03-14T11:43:53;13.40;;;3.22;;
20794;SDS011;28087;-33.874;151.240;2023-03-14T11:46:29;13.48;;;3.35;;
20794;SDS011;28087;-33.874;151.240;2023-03-14T11:49:13;11.57;;;3.17;;
20794;SDS011;28087;-33.874;151.240;2023-03-14T11:52:00;11.05;;;3.13;;
20794;SDS011;28087;-33.874;151.240;2023-03-14T11:54:39;11.82;;;3.08;;
20794;SDS011;28087;-33.874;151.240;2023-03-14T11:57:21;12.75;;;3.05;;
20794;SDS011;28087;-33.874;151.240;2023-03-14T11:59:58;15.18;;;3.50;;
20794;SDS011;28087;-33.874;151.240;2023-03-14T12:02:48;14.07;;;3.25;;
20794;SDS011;28087;-33.874;151.240;2023-03-14T12:05:42;13.55;;;3.38;;
20794;SDS011;28087;-33.874;151.240;2023-03-14T12:08:37;12.55;;;3.60;;
20794;SDS011;28087;-33.874;151.240;2023-03-14T12:11:22;11.18;;;3.20;;
20794;SDS011;28087;-33.874;151.240;2023-03-14T12:14:15;13.20;;;3.42;;
20794;SDS011;28087;-33.874;151.240;2023-03-14T12:16:54;12.88;;;3.47;;
20794;SDS011;28087;-33.874;151.240;2023-03-14T12:19:32;12.40;;;3.55;;
20794;SDS011;28087;-33.874;151.240;2023-03-14T12:22:23;11.13;;;3.22;;
20794;SDS011;28087;-33.874;151.240;2023-03-14T12:25:02;12.25;;;3.38;;
20794;SDS011;28087;-33.874;151.240;2023-03-14T12:28:03;15.30;;;3.25;;
20794;SDS011;28087;-33.874;151.240;2023-03-14T12:30:50;16.80;;;3.53;;
20794;SDS011;28087;-33.874;151.240;2023-03-14T12:33:29;12.15;;;3.15;;
20794;SDS011;28087;-33.874;151.240;2023-03-14T12:39:16;11.85;;;3.10;;
20794;SDS011;28087;-33.874;151.240;2023-03-14T12:42:01;11.45;;;2.88;;
20794;SDS011;28087;-33.874;151.240;2023-03-14T12:44:39;12.10;;;3.15;;
20794;SDS011;28087;-33.874;151.240;2023-03-14T12:50:20;9.30;;;2.90;;
20794;SDS011;28087;-33.874;151.240;2023-03-14T12:53:20;12.93;;;3.28;;
20794;SDS011;28087;-33.874;151.240;2023-03-14T12:56:26;11.77;;;3.08;;
20794;SDS011;28087;-33.874;151.240;2023-03-14T12:59:16;10.85;;;2.97;;
20794;SDS011;28087;-33.874;151.240;2023-03-14T13:02:19;12.45;;;3.13;;
20794;SDS011;28087;-33.874;151.240;2023-03-14T13:05:03;13.80;;;3.75;;
20794;SDS011;28087;-33.874;151.240;2023-03-14T13:10:42;12.10;;;3.40;;
20794;SDS011;28087;-33.874;151.240;2023-03-14T13:13:24;13.30;;;3.28;;
20794;SDS011;28087;-33.874;151.240;2023-03-14T13:16:00;13.73;;;3.33;;
20794;SDS011;28087;-33.874;151.240;2023-03-14T13:18:37;14.55;;;3.38;;
20794;SDS011;28087;-33.874;151.240;2023-03-14T13:21:15;13.27;;;3.10;;
20794;SDS011;28087;-33.874;151.240;2023-03-14T13:23:56;11.27;;;3.50;;
20794;SDS011;28087;-33.874;151.240;2023-03-14T13:26:32;12.80;;;3.25;;
20794;SDS011;28087;-33.874;151.240;2023-03-14T13:29:14;14.40;;;3.15;;
20794;SDS011;28087;-33.874;151.240;2023-03-14T13:31:51;12.02;;;3.10;;
20794;SDS011;28087;-33.874;151.240;2023-03-14T13:34:30;11.35;;;2.75;;
20794;SDS011;28087;-33.874;151.240;2023-03-14T13:37:13;12.80;;;3.25;;
20794;SDS011;28087;-33.874;151.240;2023-03-14T13:39:54;11.85;;;2.70;;
20794;SDS011;28087;-33.874;151.240;2023-03-14T13:42:30;14.80;;;3.33;;
20794;SDS011;28087;-33.874;151.240;2023-03-14T13:45:12;11.65;;;3.03;;
20794;SDS011;28087;-33.874;151.240;2023-03-14T13:47:48;10.07;;;2.97;;
20794;SDS011;28087;-33.874;151.240;2023-03-14T13:50:27;12.18;;;3.33;;
20794;SDS011;28087;-33.874;151.240;2023-03-14T13:53:02;15.43;;;3.33;;
20794;SDS011;28087;-33.874;151.240;2023-03-14T13:55:38;14.60;;;3.28;;
20794;SDS011;28087;-33.874;151.240;2023-03-14T13:58:23;19.42;;;3.70;;
20794;SDS011;28087;-33.874;151.240;2023-03-14T14:01:06;16.70;;;3.42;;
20794;SDS011;28087;-33.874;151.240;2023-03-14T14:03:48;15.15;;;3.20;;
20794;SDS011;28087;-33.874;151.240;2023-03-14T14:06:27;12.45;;;2.92;;
20794;SDS011;28087;-33.874;151.240;2023-03-14T14:09:09;16.60;;;3.13;;
20794;SDS011;28087;-33.874;151.240;2023-03-14T14:11:49;10.48;;;2.65;;
20794;SDS011;28087;-33.874;151.240;2023-03-14T14:14:43;11.82;;;2.90;;
20794;SDS011;28087;-33.874;151.240;2023-03-14T14:17:29;10.98;;;2.55;;
20794;SDS011;28087;-33.874;151.240;2023-03-14T14:20:07;9.13;;;2.30;;
20794;SDS011;28087;-33.874;151.240;2023-03-14T14:22:52;13.35;;;2.75;;
20794;SDS011;28087;-33.874;151.240;2023-03-14T14:25:28;11.35;;;2.47;;
20794;SDS011;28087;-33.874;151.240;2023-03-14T14:28:15;11.25;;;2.50;;
20794;SDS011;28087;-33.874;151.240;2023-03-14T14:31:05;13.98;;;3.08;;
20794;SDS011;28087;-33.874;151.240;2023-03-14T14:33:58;14.10;;;2.83;;
20794;SDS011;28087;-33.874;151.240;2023-03-14T14:36:36;10.05;;;2.50;;
20794;SDS011;28087;-33.874;151.240;2023-03-14T14:39:16;12.68;;;2.38;;
20794;SDS011;28087;-33.874;151.240;2023-03-14T14:41:53;10.90;;;2.75;;
20794;SDS011;28087;-33.874;151.240;2023-03-14T14:44:29;10.82;;;2.35;;
20794;SDS011;28087;-33.874;151.240;2023-03-14T14:47:06;13.98;;;2.55;;
20794;SDS011;28087;-33.874;151.240;2023-03-14T14:49:49;6.47;;;1.90;;
20794;SDS011;28087;-33.874;151.240;2023-03-14T14:52:31;9.40;;;2.20;;
20794;SDS011;28087;-33.874;151.240;2023-03-14T14:55:12;7.68;;;2.10;;
20794;SDS011;28087;-33.874;151.240;2023-03-14T14:57:51;8.80;;;2.00;;
20794;SDS011;28087;-33.874;151.240;2023-03-14T15:00:29;8.32;;;2.25;;
20794;SDS011;28087;-33.874;151.240;2023-03-14T15:03:04;7.50;;;2.08;;
20794;SDS011;28087;-33.874;151.240;2023-03-14T15:05:48;8.82;;;2.03;;
20794;SDS011;28087;-33.874;151.240;2023-03-14T15:08:24;8.13;;;2.10;;
20794;SDS011;28087;-33.874;151.240;2023-03-14T15:11:00;6.63;;;2.00;;
20794;SDS011;28087;-33.874;151.240;2023-03-14T15:13:36;6.68;;;1.90;;
20794;SDS011;28087;-33.874;151.240;2023-03-14T15:16:11;6.50;;;1.90;;
20794;SDS011;28087;-33.874;151.240;2023-03-14T15:18:50;8.57;;;2.40;;
20794;SDS011;28087;-33.874;151.240;2023-03-14T15:21:33;8.25;;;1.90;;
20794;SDS011;28087;-33.874;151.240;2023-03-14T15:24:09;5.25;;;1.85;;
20794;SDS011;28087;-33.874;151.240;2023-03-14T15:26:45;4.97;;;1.67;;
20794;SDS011;28087;-33.874;151.240;2023-03-14T15:29:22;6.20;;;1.65;;
20794;SDS011;28087;-33.874;151.240;2023-03-14T15:31:58;6.65;;;1.95;;